sensor_id;sensor_type;location;lat;lon;timestamp;P1;durP1;ratioP1;P2;durP2;ratioP2
22166;SDS011;11249;52.468;13.776;2022-12-15T00:01:57;84.40;;;41.60;;
22166;SDS011;11249;52.468;13.776;2022-12-15T00:04:43;94.10;;;45.50;;
22166;SDS011;11249;52.468;13.776;2022-12-15T00:07:29;80.17;;;41.67;;
22166;SDS011;11249;52.468;13.776;2022-12-15T00:10:15;91.33;;;43.37;;
22166;SDS011;11249;52.468;13.776;2022-12-15T00:13:00;96.03;;;42.63;;
22166;SDS011;11249;52.468;13.776;2022-12-15T00:15:46;77.90;;;39.70;;
22166;SDS011;11249;52.468;13.776;2022-12-15T00:18:32;81.83;;;40.00;;
22166;SDS011;11249;52.468;13.776;2022-12-15T00:21:17;91.77;;;43.30;;
22166;SDS011;11249;52.468;13.776;2022-12-15T00:24:03;87.17;;;41.67;;
22166;SDS011;11249;52.468;13.776;2022-12-15T00:26:48;86.43;;;42.87;;
22166;SDS011;11249;52.468;13.776;2022-12-15T00:29:34;96.40;;;43.00;;
22166;SDS011;11249;52.468;13.776;2022-12-15T00:32:19;83.73;;;40.63;;
22166;SDS011;11249;52.468;13.776;2022-12-15T00:35:05;85.23;;;42.60;;
22166;SDS011;11249;52.468;13.776;2022-12-15T00:37:50;94.03;;;42.73;;
22166;SDS011;11249;52.468;13.776;2022-12-15T00:40:36;80.30;;;40.67;;
22166;SDS011;11249;52.468;13.776;2022-12-15T00:43:02;86.90;;;43.17;;
22166;SDS011;11249;52.468;13.776;2022-12-15T00:45:29;86.23;;;41.57;;
22166;SDS011;11249;52.468;13.776;2022-12-15T00:48:14;80.20;;;42.03;;
22166;SDS011;11249;52.468;13.776;2022-12-15T00:50:43;85.43;;;43.37;;
22166;SDS011;11249;52.468;13.776;2022-12-15T00:53:19;93.80;;;43.90;;
22166;SDS011;11249;52.468;13.776;2022-12-15T00:56:05;82.00;;;41.67;;
22166;SDS011;11249;52.468;13.776;2022-12-15T00:58:51;81.67;;;41.10;;
22166;SDS011;11249;52.468;13.776;2022-12-15T01:01:37;85.67;;;41.80;;
22166;SDS011;11249;52.468;13.776;2022-12-15T01:04:23;83.37;;;41.13;;
22166;SDS011;11249;52.468;13.776;2022-12-15T01:07:09;82.77;;;41.33;;
22166;SDS011;11249;52.468;13.776;2022-12-15T01:09:54;92.13;;;43.10;;
22166;SDS011;11249;52.468;13.776;2022-12-15T01:12:40;87.20;;;43.10;;
22166;SDS011;11249;52.468;13.776;2022-12-15T01:15:26;87.30;;;40.30;;
22166;SDS011;11249;52.468;13.776;2022-12-15T01:18:11;91.53;;;43.40;;
22166;SDS011;11249;52.468;13.776;2022-12-15T01:20:57;90.27;;;42.07;;
22166;SDS011;11249;52.468;13.776;2022-12-15T01:23:26;85.30;;;40.58;;
22166;SDS011;11249;52.468;13.776;2022-12-15T01:25:53;86.80;;;42.87;;
22166;SDS011;11249;52.468;13.776;2022-12-15T01:28:20;94.10;;;43.10;;
22166;SDS011;11249;52.468;13.776;2022-12-15T01:30:49;86.63;;;41.80;;
22166;SDS011;11249;52.468;13.776;2022-12-15T01:33:16;86.83;;;42.00;;
22166;SDS011;11249;52.468;13.776;2022-12-15T01:35:43;92.83;;;42.07;;
22166;SDS011;11249;52.468;13.776;2022-12-15T01:38:11;86.97;;;44.07;;
22166;SDS011;11249;52.468;13.776;2022-12-15T01:40:38;81.27;;;41.63;;
22166;SDS011;11249;52.468;13.776;2022-12-15T01:43:12;78.93;;;40.47;;
22166;SDS011;11249;52.468;13.776;2022-12-15T01:45:46;90.53;;;43.73;;
22166;SDS011;11249;52.468;13.776;2022-12-15T01:48:24;78.67;;;39.43;;
22166;SDS011;11249;52.468;13.776;2022-12-15T01:51:11;87.27;;;40.50;;
22166;SDS011;11249;52.468;13.776;2022-12-15T01:57:00;81.60;;;40.43;;
22166;SDS011;11249;52.468;13.776;2022-12-15T01:59:31;84.23;;;40.60;;
22166;SDS011;11249;52.468;13.776;2022-12-15T02:02:03;85.00;;;41.67;;
22166;SDS011;11249;52.468;13.776;2022-12-15T02:04:30;84.87;;;42.33;;
22166;SDS011;11249;52.468;13.776;2022-12-15T02:06:58;92.10;;;42.20;;
22166;SDS011;11249;52.468;13.776;2022-12-15T02:09:25;78.03;;;39.50;;
22166;SDS011;11249;52.468;13.776;2022-12-15T02:11:55;87.60;;;41.47;;
22166;SDS011;11249;52.468;13.776;2022-12-15T02:14:31;78.77;;;38.77;;
22166;SDS011;11249;52.468;13.776;2022-12-15T02:17:05;76.73;;;39.87;;
22166;SDS011;11249;52.468;13.776;2022-12-15T02:22:40;83.33;;;40.43;;
22166;SDS011;11249;52.468;13.776;2022-12-15T02:25:38;76.93;;;38.80;;
22166;SDS011;11249;52.468;13.776;2022-12-15T02:31:14;79.77;;;40.47;;
22166;SDS011;11249;52.468;13.776;2022-12-15T02:34:08;80.43;;;40.63;;
22166;SDS011;11249;52.468;13.776;2022-12-15T02:36:43;79.17;;;38.97;;
22166;SDS011;11249;52.468;13.776;2022-12-15T02:39:16;89.07;;;40.70;;
22166;SDS011;11249;52.468;13.776;2022-12-15T02:41:44;86.70;;;40.63;;
22166;SDS011;11249;52.468;13.776;2022-12-15T02:44:19;85.10;;;41.30;;
22166;SDS011;11249;52.468;13.776;2022-12-15T02:47:16;83.80;;;39.17;;
22166;SDS011;11249;52.468;13.776;2022-12-15T02:53:05;74.57;;;40.37;;
22166;SDS011;11249;52.468;13.776;2022-12-15T02:55:55;82.10;;;38.83;;
22166;SDS011;11249;52.468;13.776;2022-12-15T02:58:38;79.97;;;39.53;;
22166;SDS011;11249;52.468;13.776;2022-12-15T03:01:29;79.70;;;39.23;;
22166;SDS011;11249;52.468;13.776;2022-12-15T03:04:01;88.23;;;42.00;;
22166;SDS011;11249;52.468;13.776;2022-12-15T03:06:30;84.03;;;39.47;;
22166;SDS011;11249;52.468;13.776;2022-12-15T03:08:57;85.93;;;40.37;;
22166;SDS011;11249;52.468;13.776;2022-12-15T03:11:23;87.13;;;40.27;;
22166;SDS011;11249;52.468;13.776;2022-12-15T03:13:51;80.97;;;41.80;;
22166;SDS011;11249;52.468;13.776;2022-12-15T03:16:19;88.57;;;40.90;;
22166;SDS011;11249;52.468;13.776;2022-12-15T03:18:46;87.40;;;40.50;;
22166;SDS011;11249;52.468;13.776;2022-12-15T03:21:13;86.40;;;40.83;;
22166;SDS011;11249;52.468;13.776;2022-12-15T03:23:39;87.53;;;41.40;;
22166;SDS011;11249;52.468;13.776;2022-12-15T03:26:06;87.83;;;42.87;;
22166;SDS011;11249;52.468;13.776;2022-12-15T03:28:33;82.67;;;39.77;;
22166;SDS011;11249;52.468;13.776;2022-12-15T03:30:59;84.50;;;41.10;;
22166;SDS011;11249;52.468;13.776;2022-12-15T03:33:26;87.97;;;42.00;;
22166;SDS011;11249;52.468;13.776;2022-12-15T03:35:53;88.17;;;40.37;;
22166;SDS011;11249;52.468;13.776;2022-12-15T03:38:20;84.43;;;41.70;;
22166;SDS011;11249;52.468;13.776;2022-12-15T03:40:47;82.77;;;41.33;;
22166;SDS011;11249;52.468;13.776;2022-12-15T03:43:14;80.70;;;40.73;;
22166;SDS011;11249;52.468;13.776;2022-12-15T03:45:41;86.00;;;41.70;;
22166;SDS011;11249;52.468;13.776;2022-12-15T03:48:07;80.33;;;40.80;;
22166;SDS011;11249;52.468;13.776;2022-12-15T03:50:37;84.70;;;40.47;;
22166;SDS011;11249;52.468;13.776;2022-12-15T03:53:04;81.35;;;40.97;;
22166;SDS011;11249;52.468;13.776;2022-12-15T03:55:30;79.87;;;38.20;;
22166;SDS011;11249;52.468;13.776;2022-12-15T03:57:57;81.17;;;40.20;;
22166;SDS011;11249;52.468;13.776;2022-12-15T04:00:24;81.23;;;41.10;;
22166;SDS011;11249;52.468;13.776;2022-12-15T04:02:52;81.37;;;39.70;;
22166;SDS011;11249;52.468;13.776;2022-12-15T04:05:23;76.60;;;37.13;;
22166;SDS011;11249;52.468;13.776;2022-12-15T04:07:57;86.47;;;39.67;;
22166;SDS011;11249;52.468;13.776;2022-12-15T04:10:26;80.83;;;38.47;;
22166;SDS011;11249;52.468;13.776;2022-12-15T04:13:06;80.30;;;40.10;;
22166;SDS011;11249;52.468;13.776;2022-12-15T04:15:35;80.23;;;40.67;;
22166;SDS011;11249;52.468;13.776;2022-12-15T04:18:03;81.20;;;39.90;;
22166;SDS011;11249;52.468;13.776;2022-12-15T04:20:37;81.70;;;39.43;;
22166;SDS011;11249;52.468;13.776;2022-12-15T04:23:05;88.17;;;40.27;;
22166;SDS011;11249;52.468;13.776;2022-12-15T04:25:33;85.27;;;42.87;;
22166;SDS011;11249;52.468;13.776;2022-12-15T04:28:19;105.77;;;49.17;;
22166;SDS011;11249;52.468;13.776;2022-12-15T04:31:08;92.13;;;45.20;;
22166;SDS011;11249;52.468;13.776;2022-12-15T04:33:57;92.17;;;45.63;;
22166;SDS011;11249;52.468;13.776;2022-12-15T04:36:46;85.03;;;43.23;;
22166;SDS011;11249;52.468;13.776;2022-12-15T04:39:34;92.83;;;42.23;;
22166;SDS011;11249;52.468;13.776;2022-12-15T04:42:22;101.17;;;44.07;;
22166;SDS011;11249;52.468;13.776;2022-12-15T04:45:07;100.87;;;45.90;;
22166;SDS011;11249;52.468;13.776;2022-12-15T04:47:54;99.20;;;46.27;;
22166;SDS011;11249;52.468;13.776;2022-12-15T04:50:39;104.70;;;46.83;;
22166;SDS011;11249;52.468;13.776;2022-12-15T04:53:25;94.03;;;43.53;;
22166;SDS011;11249;52.468;13.776;2022-12-15T04:56:11;101.53;;;42.23;;
22166;SDS011;11249;52.468;13.776;2022-12-15T04:58:58;89.40;;;41.93;;
22166;SDS011;11249;52.468;13.776;2022-12-15T05:01:44;88.00;;;41.60;;
22166;SDS011;11249;52.468;13.776;2022-12-15T05:04:30;93.17;;;42.93;;
22166;SDS011;11249;52.468;13.776;2022-12-15T05:07:15;90.77;;;43.37;;
22166;SDS011;11249;52.468;13.776;2022-12-15T05:10:01;82.33;;;40.73;;
22166;SDS011;11249;52.468;13.776;2022-12-15T05:12:47;85.03;;;41.80;;
22166;SDS011;11249;52.468;13.776;2022-12-15T05:15:33;80.27;;;39.50;;
22166;SDS011;11249;52.468;13.776;2022-12-15T05:18:19;87.90;;;41.07;;
22166;SDS011;11249;52.468;13.776;2022-12-15T05:21:04;86.90;;;40.57;;
22166;SDS011;11249;52.468;13.776;2022-12-15T05:23:50;88.33;;;41.57;;
22166;SDS011;11249;52.468;13.776;2022-12-15T05:26:37;94.03;;;43.03;;
22166;SDS011;11249;52.468;13.776;2022-12-15T05:29:22;89.07;;;42.90;;
22166;SDS011;11249;52.468;13.776;2022-12-15T05:32:08;92.53;;;43.97;;
22166;SDS011;11249;52.468;13.776;2022-12-15T05:34:35;90.63;;;44.07;;
22166;SDS011;11249;52.468;13.776;2022-12-15T05:37:02;85.23;;;39.67;;
22166;SDS011;11249;52.468;13.776;2022-12-15T05:39:30;94.07;;;42.67;;
22166;SDS011;11249;52.468;13.776;2022-12-15T05:41:57;93.30;;;41.70;;
22166;SDS011;11249;52.468;13.776;2022-12-15T05:44:24;91.50;;;43.53;;
22166;SDS011;11249;52.468;13.776;2022-12-15T05:46:51;84.97;;;41.30;;
22166;SDS011;11249;52.468;13.776;2022-12-15T05:49:18;87.60;;;39.13;;
22166;SDS011;11249;52.468;13.776;2022-12-15T05:51:46;87.90;;;40.37;;
22166;SDS011;11249;52.468;13.776;2022-12-15T05:54:14;84.17;;;38.70;;
22166;SDS011;11249;52.468;13.776;2022-12-15T05:56:42;86.82;;;40.88;;
22166;SDS011;11249;52.468;13.776;2022-12-15T05:59:09;88.40;;;40.97;;
22166;SDS011;11249;52.468;13.776;2022-12-15T06:01:36;83.27;;;40.23;;
22166;SDS011;11249;52.468;13.776;2022-12-15T06:04:03;80.20;;;37.63;;
22166;SDS011;11249;52.468;13.776;2022-12-15T06:06:30;82.27;;;37.80;;
22166;SDS011;11249;52.468;13.776;2022-12-15T06:08:57;84.10;;;40.77;;
22166;SDS011;11249;52.468;13.776;2022-12-15T06:11:24;79.77;;;39.37;;
22166;SDS011;11249;52.468;13.776;2022-12-15T06:13:53;85.63;;;40.50;;
22166;SDS011;11249;52.468;13.776;2022-12-15T06:16:21;92.37;;;42.73;;
22166;SDS011;11249;52.468;13.776;2022-12-15T06:18:51;91.57;;;40.83;;
22166;SDS011;11249;52.468;13.776;2022-12-15T06:21:21;93.77;;;39.07;;
22166;SDS011;11249;52.468;13.776;2022-12-15T06:26:17;90.87;;;40.87;;
22166;SDS011;11249;52.468;13.776;2022-12-15T06:28:55;121.40;;;41.53;;
22166;SDS011;11249;52.468;13.776;2022-12-15T06:31:23;82.03;;;39.38;;
22166;SDS011;11249;52.468;13.776;2022-12-15T06:33:51;99.87;;;40.33;;
22166;SDS011;11249;52.468;13.776;2022-12-15T06:36:26;97.10;;;37.97;;
22166;SDS011;11249;52.468;13.776;2022-12-15T06:38:56;88.70;;;37.70;;
22166;SDS011;11249;52.468;13.776;2022-12-15T06:41:26;92.23;;;41.47;;
22166;SDS011;11249;52.468;13.776;2022-12-15T06:43:54;92.15;;;42.47;;
22166;SDS011;11249;52.468;13.776;2022-12-15T06:46:23;89.33;;;38.93;;
22166;SDS011;11249;52.468;13.776;2022-12-15T06:48:51;88.90;;;42.13;;
22166;SDS011;11249;52.468;13.776;2022-12-15T06:51:18;86.23;;;40.13;;
22166;SDS011;11249;52.468;13.776;2022-12-15T06:53:46;99.67;;;39.03;;
22166;SDS011;11249;52.468;13.776;2022-12-15T07:01:25;85.87;;;39.67;;
22166;SDS011;11249;52.468;13.776;2022-12-15T07:03:52;89.77;;;41.17;;
22166;SDS011;11249;52.468;13.776;2022-12-15T07:06:20;96.10;;;40.63;;
22166;SDS011;11249;52.468;13.776;2022-12-15T07:08:48;90.77;;;39.50;;
22166;SDS011;11249;52.468;13.776;2022-12-15T07:11:17;90.03;;;39.83;;
22166;SDS011;11249;52.468;13.776;2022-12-15T07:13:49;89.33;;;40.83;;
22166;SDS011;11249;52.468;13.776;2022-12-15T07:16:16;94.00;;;39.73;;
22166;SDS011;11249;52.468;13.776;2022-12-15T07:18:43;91.40;;;40.60;;
22166;SDS011;11249;52.468;13.776;2022-12-15T07:21:10;89.00;;;40.13;;
22166;SDS011;11249;52.468;13.776;2022-12-15T07:23:37;103.50;;;43.23;;
22166;SDS011;11249;52.468;13.776;2022-12-15T07:26:20;88.87;;;40.67;;
22166;SDS011;11249;52.468;13.776;2022-12-15T07:28:46;102.23;;;43.97;;
22166;SDS011;11249;52.468;13.776;2022-12-15T07:31:14;94.23;;;43.17;;
22166;SDS011;11249;52.468;13.776;2022-12-15T07:33:41;85.50;;;40.63;;
22166;SDS011;11249;52.468;13.776;2022-12-15T07:36:08;94.03;;;41.73;;
22166;SDS011;11249;52.468;13.776;2022-12-15T07:38:35;93.93;;;40.10;;
22166;SDS011;11249;52.468;13.776;2022-12-15T07:41:02;96.03;;;41.93;;
22166;SDS011;11249;52.468;13.776;2022-12-15T07:43:30;92.07;;;40.67;;
22166;SDS011;11249;52.468;13.776;2022-12-15T07:45:58;85.53;;;40.97;;
22166;SDS011;11249;52.468;13.776;2022-12-15T07:48:25;88.33;;;40.67;;
22166;SDS011;11249;52.468;13.776;2022-12-15T07:50:52;81.47;;;37.40;;
22166;SDS011;11249;52.468;13.776;2022-12-15T07:53:34;86.33;;;39.87;;
22166;SDS011;11249;52.468;13.776;2022-12-15T07:56:02;76.47;;;37.17;;
22166;SDS011;11249;52.468;13.776;2022-12-15T07:58:33;80.93;;;38.43;;
22166;SDS011;11249;52.468;13.776;2022-12-15T08:01:01;92.53;;;41.70;;
22166;SDS011;11249;52.468;13.776;2022-12-15T08:03:30;84.05;;;40.30;;
22166;SDS011;11249;52.468;13.776;2022-12-15T08:05:57;86.13;;;40.87;;
22166;SDS011;11249;52.468;13.776;2022-12-15T08:08:32;84.80;;;39.20;;
22166;SDS011;11249;52.468;13.776;2022-12-15T08:11:04;86.90;;;39.73;;
22166;SDS011;11249;52.468;13.776;2022-12-15T08:13:32;92.90;;;39.03;;
22166;SDS011;11249;52.468;13.776;2022-12-15T08:16:19;85.17;;;40.17;;
22166;SDS011;11249;52.468;13.776;2022-12-15T08:18:46;79.67;;;38.67;;
22166;SDS011;11249;52.468;13.776;2022-12-15T08:21:13;90.53;;;41.37;;
22166;SDS011;11249;52.468;13.776;2022-12-15T08:23:40;86.13;;;40.27;;
22166;SDS011;11249;52.468;13.776;2022-12-15T08:26:09;85.80;;;40.03;;
22166;SDS011;11249;52.468;13.776;2022-12-15T08:28:38;88.23;;;40.97;;
22166;SDS011;11249;52.468;13.776;2022-12-15T08:31:07;89.03;;;41.60;;
22166;SDS011;11249;52.468;13.776;2022-12-15T08:33:38;87.87;;;42.00;;
22166;SDS011;11249;52.468;13.776;2022-12-15T08:36:06;83.57;;;40.07;;
22166;SDS011;11249;52.468;13.776;2022-12-15T08:38:35;89.57;;;39.20;;
22166;SDS011;11249;52.468;13.776;2022-12-15T08:41:10;83.40;;;39.07;;
22166;SDS011;11249;52.468;13.776;2022-12-15T08:43:42;88.10;;;38.30;;
22166;SDS011;11249;52.468;13.776;2022-12-15T08:46:14;84.33;;;37.77;;
22166;SDS011;11249;52.468;13.776;2022-12-15T08:48:42;82.87;;;38.03;;
22166;SDS011;11249;52.468;13.776;2022-12-15T08:51:09;83.90;;;38.93;;
22166;SDS011;11249;52.468;13.776;2022-12-15T08:53:35;85.03;;;38.13;;
22166;SDS011;11249;52.468;13.776;2022-12-15T08:56:04;83.27;;;38.67;;
22166;SDS011;11249;52.468;13.776;2022-12-15T08:58:33;82.95;;;39.72;;
22166;SDS011;11249;52.468;13.776;2022-12-15T09:01:00;85.60;;;40.30;;
22166;SDS011;11249;52.468;13.776;2022-12-15T09:03:28;88.10;;;41.10;;
22166;SDS011;11249;52.468;13.776;2022-12-15T09:05:58;81.63;;;39.43;;
22166;SDS011;11249;52.468;13.776;2022-12-15T09:08:30;80.57;;;38.57;;
22166;SDS011;11249;52.468;13.776;2022-12-15T09:10:58;81.90;;;38.50;;
22166;SDS011;11249;52.468;13.776;2022-12-15T09:13:25;82.53;;;38.80;;
22166;SDS011;11249;52.468;13.776;2022-12-15T09:15:59;76.00;;;37.27;;
22166;SDS011;11249;52.468;13.776;2022-12-15T09:18:36;74.37;;;37.23;;
22166;SDS011;11249;52.468;13.776;2022-12-15T09:21:03;76.20;;;37.63;;
22166;SDS011;11249;52.468;13.776;2022-12-15T09:23:32;82.70;;;38.20;;
22166;SDS011;11249;52.468;13.776;2022-12-15T09:26:01;82.53;;;39.53;;
22166;SDS011;11249;52.468;13.776;2022-12-15T09:28:29;75.80;;;38.10;;
22166;SDS011;11249;52.468;13.776;2022-12-15T09:31:01;77.13;;;37.70;;
22166;SDS011;11249;52.468;13.776;2022-12-15T09:33:29;78.97;;;38.30;;
22166;SDS011;11249;52.468;13.776;2022-12-15T09:35:56;83.20;;;37.63;;
22166;SDS011;11249;52.468;13.776;2022-12-15T09:38:23;72.23;;;38.27;;
22166;SDS011;11249;52.468;13.776;2022-12-15T09:40:50;76.37;;;35.67;;
22166;SDS011;11249;52.468;13.776;2022-12-15T09:43:21;75.80;;;36.13;;
22166;SDS011;11249;52.468;13.776;2022-12-15T09:49:09;67.60;;;35.43;;
22166;SDS011;11249;52.468;13.776;2022-12-15T09:51:57;75.82;;;36.35;;
22166;SDS011;11249;52.468;13.776;2022-12-15T09:54:34;89.65;;;38.60;;
22166;SDS011;11249;52.468;13.776;2022-12-15T09:57:05;80.10;;;38.60;;
22166;SDS011;11249;52.468;13.776;2022-12-15T09:59:39;77.00;;;36.87;;
22166;SDS011;11249;52.468;13.776;2022-12-15T10:02:43;75.23;;;36.83;;
22166;SDS011;11249;52.468;13.776;2022-12-15T10:05:31;86.53;;;39.77;;
22166;SDS011;11249;52.468;13.776;2022-12-15T10:08:33;77.60;;;37.40;;
22166;SDS011;11249;52.468;13.776;2022-12-15T10:11:34;83.83;;;37.60;;
22166;SDS011;11249;52.468;13.776;2022-12-15T10:19:52;73.23;;;37.50;;
22166;SDS011;11249;52.468;13.776;2022-12-15T10:22:24;77.80;;;35.57;;
22166;SDS011;11249;52.468;13.776;2022-12-15T10:24:58;71.37;;;36.13;;
22166;SDS011;11249;52.468;13.776;2022-12-15T10:27:54;73.13;;;36.42;;
22166;SDS011;11249;52.468;13.776;2022-12-15T10:30:31;75.23;;;36.57;;
22166;SDS011;11249;52.468;13.776;2022-12-15T10:33:00;72.83;;;37.47;;
22166;SDS011;11249;52.468;13.776;2022-12-15T10:35:29;78.20;;;36.50;;
22166;SDS011;11249;52.468;13.776;2022-12-15T10:37:59;73.87;;;36.83;;
22166;SDS011;11249;52.468;13.776;2022-12-15T10:40:44;82.70;;;38.08;;
22166;SDS011;11249;52.468;13.776;2022-12-15T10:43:35;73.10;;;36.60;;
22166;SDS011;11249;52.468;13.776;2022-12-15T10:46:45;76.97;;;36.97;;
22166;SDS011;11249;52.468;13.776;2022-12-15T10:48:58;71.47;;;35.93;;
22166;SDS011;11249;52.468;13.776;2022-12-15T10:51:49;77.37;;;37.70;;
22166;SDS011;11249;52.468;13.776;2022-12-15T10:54:17;77.43;;;38.03;;
22166;SDS011;11249;52.468;13.776;2022-12-15T10:56:54;82.37;;;37.73;;
22166;SDS011;11249;52.468;13.776;2022-12-15T11:05:14;72.47;;;35.73;;
22166;SDS011;11249;52.468;13.776;2022-12-15T11:07:49;73.23;;;36.20;;
22166;SDS011;11249;52.468;13.776;2022-12-15T11:10:22;72.67;;;36.77;;
22166;SDS011;11249;52.468;13.776;2022-12-15T11:13:12;67.40;;;36.13;;
22166;SDS011;11249;52.468;13.776;2022-12-15T11:15:42;68.13;;;34.57;;
22166;SDS011;11249;52.468;13.776;2022-12-15T11:18:26;71.57;;;36.00;;
22166;SDS011;11249;52.468;13.776;2022-12-15T11:21:03;67.88;;;35.72;;
22166;SDS011;11249;52.468;13.776;2022-12-15T11:31:49;66.33;;;34.97;;
22166;SDS011;11249;52.468;13.776;2022-12-15T11:34:21;67.82;;;33.45;;
22166;SDS011;11249;52.468;13.776;2022-12-15T11:37:02;67.27;;;31.93;;
22166;SDS011;11249;52.468;13.776;2022-12-15T11:45:17;71.50;;;34.53;;
22166;SDS011;11249;52.468;13.776;2022-12-15T11:48:01;69.30;;;34.87;;
22166;SDS011;11249;52.468;13.776;2022-12-15T11:53:39;62.95;;;33.47;;
22166;SDS011;11249;52.468;13.776;2022-12-15T11:56:41;65.27;;;33.67;;
22166;SDS011;11249;52.468;13.776;2022-12-15T12:02:24;54.83;;;31.40;;
22166;SDS011;11249;52.468;13.776;2022-12-15T12:07:55;65.57;;;34.37;;
22166;SDS011;11249;52.468;13.776;2022-12-15T12:10:56;57.67;;;31.83;;
22166;SDS011;11249;52.468;13.776;2022-12-15T12:16:09;63.03;;;31.33;;
22166;SDS011;11249;52.468;13.776;2022-12-15T12:18:46;61.13;;;33.07;;
22166;SDS011;11249;52.468;13.776;2022-12-15T12:21:19;57.50;;;31.23;;
22166;SDS011;11249;52.468;13.776;2022-12-15T12:23:58;58.90;;;32.50;;
22166;SDS011;11249;52.468;13.776;2022-12-15T12:26:45;54.97;;;31.30;;
22166;SDS011;11249;52.468;13.776;2022-12-15T12:29:27;59.43;;;30.87;;
22166;SDS011;11249;52.468;13.776;2022-12-15T12:32:29;62.70;;;32.70;;
22166;SDS011;11249;52.468;13.776;2022-12-15T12:35:12;59.77;;;32.60;;
22166;SDS011;11249;52.468;13.776;2022-12-15T12:37:59;57.70;;;31.63;;
22166;SDS011;11249;52.468;13.776;2022-12-15T12:43:32;52.90;;;29.97;;
22166;SDS011;11249;52.468;13.776;2022-12-15T12:46:09;57.97;;;29.70;;
22166;SDS011;11249;52.468;13.776;2022-12-15T12:48:50;55.00;;;29.27;;
22166;SDS011;11249;52.468;13.776;2022-12-15T12:51:32;60.87;;;31.97;;
22166;SDS011;11249;52.468;13.776;2022-12-15T12:54:01;55.75;;;29.58;;
22166;SDS011;11249;52.468;13.776;2022-12-15T12:56:42;61.90;;;30.47;;
22166;SDS011;11249;52.468;13.776;2022-12-15T13:01:56;55.30;;;30.03;;
22166;SDS011;11249;52.468;13.776;2022-12-15T13:04:50;54.07;;;29.27;;
22166;SDS011;11249;52.468;13.776;2022-12-15T13:10:40;57.50;;;30.93;;
22166;SDS011;11249;52.468;13.776;2022-12-15T13:24:26;61.27;;;29.23;;
22166;SDS011;11249;52.468;13.776;2022-12-15T13:27:10;54.97;;;29.50;;
22166;SDS011;11249;52.468;13.776;2022-12-15T13:29:54;59.00;;;30.53;;
22166;SDS011;11249;52.468;13.776;2022-12-15T13:33:12;63.07;;;31.47;;
22166;SDS011;11249;52.468;13.776;2022-12-15T13:36:02;58.97;;;31.70;;
22166;SDS011;11249;52.468;13.776;2022-12-15T13:38:52;63.50;;;32.67;;
22166;SDS011;11249;52.468;13.776;2022-12-15T13:41:26;61.13;;;33.27;;
22166;SDS011;11249;52.468;13.776;2022-12-15T13:43:59;61.30;;;31.70;;
22166;SDS011;11249;52.468;13.776;2022-12-15T13:46:33;55.40;;;31.70;;
22166;SDS011;11249;52.468;13.776;2022-12-15T13:49:05;61.40;;;33.17;;
22166;SDS011;11249;52.468;13.776;2022-12-15T13:51:45;66.10;;;32.47;;
22166;SDS011;11249;52.468;13.776;2022-12-15T13:54:20;60.90;;;31.13;;
22166;SDS011;11249;52.468;13.776;2022-12-15T14:00:03;63.00;;;31.77;;
22166;SDS011;11249;52.468;13.776;2022-12-15T14:02:39;60.57;;;31.13;;
22166;SDS011;11249;52.468;13.776;2022-12-15T14:05:14;57.80;;;31.27;;
22166;SDS011;11249;52.468;13.776;2022-12-15T14:07:59;55.90;;;30.10;;
22166;SDS011;11249;52.468;13.776;2022-12-15T14:10:28;58.83;;;31.87;;
22166;SDS011;11249;52.468;13.776;2022-12-15T14:19:32;65.97;;;32.67;;
22166;SDS011;11249;52.468;13.776;2022-12-15T14:21:48;54.37;;;29.67;;
22166;SDS011;11249;52.468;13.776;2022-12-15T14:24:27;63.80;;;32.53;;
22166;SDS011;11249;52.468;13.776;2022-12-15T14:32:56;54.43;;;30.07;;
22166;SDS011;11249;52.468;13.776;2022-12-15T14:35:41;60.83;;;31.43;;
22166;SDS011;11249;52.468;13.776;2022-12-15T14:38:30;55.90;;;30.50;;
22166;SDS011;11249;52.468;13.776;2022-12-15T14:41:13;70.63;;;32.80;;
22166;SDS011;11249;52.468;13.776;2022-12-15T14:43:49;60.13;;;30.60;;
22166;SDS011;11249;52.468;13.776;2022-12-15T14:46:46;64.30;;;32.03;;
22166;SDS011;11249;52.468;13.776;2022-12-15T14:49:20;58.43;;;31.43;;
22166;SDS011;11249;52.468;13.776;2022-12-15T14:51:57;62.93;;;30.83;;
22166;SDS011;11249;52.468;13.776;2022-12-15T14:54:34;63.63;;;30.50;;
22166;SDS011;11249;52.468;13.776;2022-12-15T14:57:23;60.17;;;31.05;;
22166;SDS011;11249;52.468;13.776;2022-12-15T15:06:06;60.90;;;30.30;;
22166;SDS011;11249;52.468;13.776;2022-12-15T15:08:56;66.20;;;31.03;;
22166;SDS011;11249;52.468;13.776;2022-12-15T15:11:53;60.30;;;32.43;;
22166;SDS011;11249;52.468;13.776;2022-12-15T15:14:54;57.13;;;30.47;;
22166;SDS011;11249;52.468;13.776;2022-12-15T15:17:34;57.70;;;29.77;;
22166;SDS011;11249;52.468;13.776;2022-12-15T15:20:02;71.73;;;34.27;;
22166;SDS011;11249;52.468;13.776;2022-12-15T15:22:33;55.73;;;29.97;;
22166;SDS011;11249;52.468;13.776;2022-12-15T15:30:52;58.67;;;30.57;;
22166;SDS011;11249;52.468;13.776;2022-12-15T15:33:31;61.20;;;31.05;;
22166;SDS011;11249;52.468;13.776;2022-12-15T15:36:05;69.37;;;30.90;;
22166;SDS011;11249;52.468;13.776;2022-12-15T15:38:38;61.50;;;32.50;;
22166;SDS011;11249;52.468;13.776;2022-12-15T15:43:39;61.67;;;31.07;;
22166;SDS011;11249;52.468;13.776;2022-12-15T15:46:08;60.10;;;30.13;;
22166;SDS011;11249;52.468;13.776;2022-12-15T15:48:44;65.83;;;30.67;;
22166;SDS011;11249;52.468;13.776;2022-12-15T15:51:15;61.07;;;31.23;;
22166;SDS011;11249;52.468;13.776;2022-12-15T15:53:49;63.03;;;30.97;;
22166;SDS011;11249;52.468;13.776;2022-12-15T15:56:16;62.13;;;31.30;;
22166;SDS011;11249;52.468;13.776;2022-12-15T15:58:44;63.43;;;30.70;;
22166;SDS011;11249;52.468;13.776;2022-12-15T16:01:18;61.53;;;32.03;;
22166;SDS011;11249;52.468;13.776;2022-12-15T16:03:45;59.17;;;29.63;;
22166;SDS011;11249;52.468;13.776;2022-12-15T16:06:19;56.90;;;31.53;;
22166;SDS011;11249;52.468;13.776;2022-12-15T16:08:55;63.10;;;33.10;;
22166;SDS011;11249;52.468;13.776;2022-12-15T16:11:23;66.33;;;32.17;;
22166;SDS011;11249;52.468;13.776;2022-12-15T16:13:52;76.47;;;33.97;;
22166;SDS011;11249;52.468;13.776;2022-12-15T16:16:27;63.17;;;30.43;;
22166;SDS011;11249;52.468;13.776;2022-12-15T16:18:57;61.03;;;32.57;;
22166;SDS011;11249;52.468;13.776;2022-12-15T16:21:30;73.30;;;34.40;;
22166;SDS011;11249;52.468;13.776;2022-12-15T16:23:57;65.17;;;32.20;;
22166;SDS011;11249;52.468;13.776;2022-12-15T16:26:25;70.27;;;34.30;;
22166;SDS011;11249;52.468;13.776;2022-12-15T16:29:00;69.23;;;35.43;;
22166;SDS011;11249;52.468;13.776;2022-12-15T16:31:34;70.87;;;34.27;;
22166;SDS011;11249;52.468;13.776;2022-12-15T16:34:07;65.33;;;34.00;;
22166;SDS011;11249;52.468;13.776;2022-12-15T16:36:40;68.63;;;32.17;;
22166;SDS011;11249;52.468;13.776;2022-12-15T16:39:19;70.60;;;35.53;;
22166;SDS011;11249;52.468;13.776;2022-12-15T16:42:00;69.40;;;35.10;;
22166;SDS011;11249;52.468;13.776;2022-12-15T16:44:27;66.97;;;32.30;;
22166;SDS011;11249;52.468;13.776;2022-12-15T16:46:55;73.90;;;36.40;;